createdAt,value
2023-01-07T00:04:31.849Z,5.30
2023-01-07T00:09:34.072Z,5.30
2023-01-07T00:14:36.355Z,5.40
2023-01-07T00:19:38.972Z,5.50
2023-01-07T00:24:41.298Z,5.70
2023-01-07T00:29:43.555Z,5.70
2023-01-07T00:34:45.789Z,5.80
2023-01-07T00:39:48.146Z,5.90
2023-01-07T00:44:50.390Z,6.10
2023-01-07T00:49:52.615Z,6.00
2023-01-07T00:54:54.958Z,6.10
2023-01-07T00:59:57.387Z,6.10
2023-01-07T01:05:00.598Z,6.20
2023-01-07T01:10:03.637Z,6.30
2023-01-07T01:15:09.253Z,6.40
2023-01-07T01:20:14.896Z,6.50
2023-01-07T01:25:17.324Z,6.40
2023-01-07T01:30:19.747Z,6.40
2023-01-07T01:35:22.479Z,6.30
2023-01-07T01:40:30.025Z,6.40
2023-01-07T01:45:32.571Z,6.30
2023-01-07T01:50:42.877Z,6.40
2023-01-07T01:56:02.462Z,6.30
2023-01-07T02:01:06.029Z,6.30
2023-01-07T02:06:18.616Z,6.30
2023-01-07T02:11:23.641Z,6.20
2023-01-07T02:16:40.913Z,6.30
2023-01-07T02:21:50.781Z,6.30
2023-01-07T02:27:11.540Z,6.20
2023-01-07T02:32:33.422Z,6.20
2023-01-07T02:38:06.758Z,6.20
2023-01-07T02:43:27.702Z,6.30
2023-01-07T02:48:31.350Z,6.40
2023-01-07T02:53:34.157Z,6.40
2023-01-07T02:58:58.381Z,6.30
2023-01-07T03:04:34.145Z,6.30
2023-01-07T03:10:00.729Z,6.30
2023-01-07T03:15:11.067Z,6.30
2023-01-07T03:20:15.405Z,6.20
2023-01-07T03:25:21.586Z,6.30
2023-01-07T03:30:27.962Z,6.30
2023-01-07T03:35:34.058Z,6.40
2023-01-07T03:40:37.856Z,6.40
2023-01-07T03:45:41.840Z,6.30
2023-01-07T03:50:44.357Z,6.30
2023-01-07T03:55:46.772Z,6.40
2023-01-07T04:00:49.809Z,6.30
2023-01-07T04:05:54.668Z,6.30
2023-01-07T04:10:59.149Z,6.30
2023-01-07T04:16:02.785Z,6.30
2023-01-07T04:21:05.676Z,6.20
2023-01-07T04:26:08.069Z,6.30
2023-01-07T04:31:10.646Z,6.20
2023-01-07T04:36:13.743Z,6.20
2023-01-07T04:41:16.858Z,6.20
2023-01-07T04:46:19.386Z,6.20
2023-01-07T04:51:21.985Z,6.10
2023-01-07T04:56:25.094Z,6.10
2023-01-07T05:01:31.379Z,6.10
2023-01-07T05:06:34.216Z,6.10
2023-01-07T05:11:36.821Z,6.10
2023-01-07T05:16:39.993Z,6.00
2023-01-07T05:21:45.555Z,6.10
2023-01-07T05:26:48.536Z,6.10
2023-01-07T05:31:53.567Z,6.10
2023-01-07T05:36:55.897Z,6.10
2023-01-07T05:41:58.941Z,6.10
2023-01-07T05:47:01.808Z,6.10
2023-01-07T05:52:04.213Z,6.10
2023-01-07T05:57:06.571Z,6.20
2023-01-07T06:02:08.909Z,6.20
2023-01-07T06:07:11.267Z,6.20
2023-01-07T06:12:13.557Z,6.20
2023-01-07T06:17:15.812Z,6.20
2023-01-07T06:22:18.071Z,6.20
2023-01-07T06:27:20.371Z,6.10
2023-01-07T06:32:22.801Z,6.10
2023-01-07T06:37:25.118Z,6.10
2023-01-07T06:42:27.426Z,6.00
2023-01-07T06:47:29.712Z,6.00
2023-01-07T06:52:31.945Z,6.00
2023-01-07T06:57:34.176Z,6.00
2023-01-07T07:02:36.842Z,6.00
2023-01-07T07:07:39.143Z,6.00
2023-01-07T07:12:41.528Z,5.90
2023-01-07T07:17:43.787Z,5.90
2023-01-07T07:22:46.626Z,5.80
2023-01-07T07:27:48.860Z,5.90
2023-01-07T07:32:51.268Z,5.80
2023-01-07T07:37:53.680Z,5.80
2023-01-07T07:43:11.491Z,5.80
2023-01-07T07:48:15.798Z,5.80
2023-01-07T07:53:18.773Z,5.90
2023-01-07T07:58:21.031Z,6.00
2023-01-07T08:03:24.412Z,6.00
2023-01-07T08:08:26.767Z,6.10
2023-01-07T08:13:30.345Z,6.20
2023-01-07T08:18:32.639Z,6.10
2023-01-07T08:23:35.011Z,6.20
2023-01-07T08:28:37.870Z,6.30
2023-01-07T08:33:40.190Z,6.50
2023-01-07T08:38:44.216Z,6.50
2023-01-07T08:43:46.561Z,6.70
2023-01-07T08:48:48.850Z,6.70
2023-01-07T08:53:51.124Z,6.90
2023-01-07T08:58:53.382Z,6.80
2023-01-07T09:03:55.674Z,6.90
2023-01-07T09:08:57.917Z,6.90
2023-01-07T09:14:00.229Z,7.00
2023-01-07T09:19:02.483Z,7.00
2023-01-07T09:24:05.006Z,6.80
2023-01-07T09:29:07.292Z,7.00
2023-01-07T09:34:09.540Z,7.10
2023-01-07T09:39:12.309Z,7.20
2023-01-07T09:44:32.453Z,7.30
2023-01-07T09:49:34.848Z,7.30
2023-01-07T09:54:39.546Z,7.40
2023-01-07T09:59:42.546Z,7.40
2023-01-07T10:05:27.110Z,7.50
2023-01-07T10:10:46.731Z,7.50
2023-01-07T10:16:20.043Z,7.60
2023-01-07T10:21:36.103Z,7.60
2023-01-07T10:26:43.279Z,7.60
2023-01-07T10:31:46.846Z,7.40
2023-01-07T10:37:02.635Z,7.30
2023-01-07T10:42:52.345Z,7.50
2023-01-07T10:48:15.777Z,7.50
2023-01-07T10:53:33.163Z,7.50
2023-01-07T10:58:45.104Z,7.40
2023-01-07T11:03:50.807Z,7.40
2023-01-07T11:08:53.801Z,7.50
2023-01-07T11:14:10.287Z,7.50
2023-01-07T11:19:12.659Z,7.50
2023-01-07T11:24:27.098Z,7.60
2023-01-07T11:29:37.314Z,7.70
2023-01-07T11:34:51.923Z,7.80
2023-01-07T11:39:59.679Z,7.90
2023-01-07T11:45:20.470Z,8.20
2023-01-07T11:50:33.982Z,8.40
2023-01-07T11:55:36.322Z,8.40
2023-01-07T12:00:38.618Z,8.40
2023-01-07T12:05:45.220Z,8.40
2023-01-07T12:10:55.749Z,8.40
2023-01-07T12:16:05.300Z,8.40
2023-01-07T12:21:22.541Z,8.40
2023-01-07T12:26:50.115Z,8.40
2023-01-07T12:32:30.774Z,8.30
2023-01-07T12:37:38.658Z,8.30
2023-01-07T12:42:44.591Z,8.40
2023-01-07T12:47:53.244Z,8.40
2023-01-07T12:53:05.446Z,8.40
2023-01-07T12:58:29.045Z,8.50
2023-01-07T13:03:49.359Z,8.70
2023-01-07T13:09:07.468Z,8.70
2023-01-07T13:14:20.197Z,8.80
2023-01-07T13:19:22.569Z,8.90
2023-01-07T13:24:56.490Z,8.90
2023-01-07T13:30:25.178Z,8.90
2023-01-07T13:35:54.488Z,8.90
2023-01-07T13:41:05.986Z,8.80
2023-01-07T13:46:16.106Z,8.80
2023-01-07T13:51:31.368Z,8.80
2023-01-07T13:56:36.061Z,8.60
2023-01-07T14:02:14.439Z,8.60
2023-01-07T14:07:18.433Z,8.60
2023-01-07T14:13:01.001Z,8.60
2023-01-07T14:18:22.104Z,8.50
2023-01-07T14:23:51.454Z,8.60
2023-01-07T14:29:12.337Z,8.60
2023-01-07T14:34:26.492Z,8.60
2023-01-07T14:39:34.706Z,8.60
2023-01-07T14:44:37.003Z,8.50
2023-01-07T14:50:18.931Z,8.40
2023-01-07T14:55:29.878Z,8.40
2023-01-07T15:01:00.202Z,8.40
2023-01-07T15:06:28.877Z,8.30
2023-01-07T15:11:51.451Z,8.20
2023-01-07T15:16:54.583Z,8.10
2023-01-07T15:22:14.754Z,8.10
2023-01-07T15:27:37.250Z,8.10
2023-01-07T15:32:49.983Z,8.10
2023-01-07T15:37:53.166Z,8.00
2023-01-07T15:42:58.205Z,8.00
2023-01-07T15:48:11.687Z,8.00
2023-01-07T15:53:13.910Z,8.00
2023-01-07T15:58:19.941Z,8.00
2023-01-07T16:03:22.499Z,8.00
2023-01-07T16:08:30.779Z,7.90
2023-01-07T16:13:35.127Z,7.90
2023-01-07T16:18:37.388Z,8.10
2023-01-07T16:23:41.053Z,7.90
2023-01-07T16:29:01.048Z,8.00
2023-01-07T16:34:26.049Z,8.00
2023-01-07T16:39:47.346Z,8.00
2023-01-07T16:44:55.512Z,8.00
2023-01-07T16:50:19.912Z,8.00
2023-01-07T16:55:54.738Z,8.00
2023-01-07T17:01:00.594Z,8.00
2023-01-07T17:06:06.529Z,8.00
2023-01-07T17:11:45.336Z,8.00
2023-01-07T17:17:00.212Z,7.90
2023-01-07T17:22:02.706Z,7.80
2023-01-07T17:27:06.223Z,7.80
2023-01-07T17:32:12.317Z,7.90
2023-01-07T17:37:16.355Z,7.90
2023-01-07T17:42:39.169Z,7.90
2023-01-07T17:47:41.603Z,7.90
2023-01-07T17:52:54.604Z,7.90
2023-01-07T17:57:57.043Z,7.80
2023-01-07T18:02:59.373Z,7.70
2023-01-07T18:08:01.633Z,7.70
2023-01-07T18:13:03.935Z,7.70
2023-01-07T18:18:06.237Z,7.60
2023-01-07T18:23:11.356Z,7.60
2023-01-07T18:28:14.212Z,7.60
2023-01-07T18:33:16.492Z,7.70
2023-01-07T18:38:18.804Z,7.60
2023-01-07T18:43:21.318Z,7.50
2023-01-07T18:48:23.650Z,7.40
2023-01-07T18:53:27.340Z,7.30
2023-01-07T18:58:29.685Z,7.20
2023-01-07T19:03:32.037Z,7.00
2023-01-07T19:08:34.449Z,7.00
2023-01-07T19:13:36.844Z,6.90
2023-01-07T19:18:39.444Z,6.80
2023-01-07T19:23:41.847Z,6.70
2023-01-07T19:28:44.723Z,6.60
2023-01-07T19:33:47.052Z,6.50
2023-01-07T19:38:49.478Z,6.30
2023-01-07T19:43:57.046Z,6.20
2023-01-07T19:48:59.272Z,6.20
2023-01-07T19:54:02.224Z,6.10
2023-01-07T19:59:04.564Z,6.10
2023-01-07T20:04:08.012Z,6.00
2023-01-07T20:09:13.355Z,5.90
2023-01-07T20:14:15.784Z,5.80
2023-01-07T20:19:18.124Z,5.70
2023-01-07T20:24:20.467Z,5.60
2023-01-07T20:29:23.126Z,5.50
2023-01-07T20:34:25.473Z,5.40
2023-01-07T20:39:27.821Z,5.50
2023-01-07T20:44:30.055Z,5.40
2023-01-07T20:49:32.318Z,5.30
2023-01-07T20:54:34.587Z,5.40
2023-01-07T20:59:36.804Z,5.30
2023-01-07T21:04:39.038Z,5.30
2023-01-07T21:09:43.381Z,5.20
2023-01-07T21:14:45.726Z,5.10
2023-01-07T21:19:48.391Z,5.20
2023-01-07T21:24:50.608Z,5.10
2023-01-07T21:29:52.917Z,5.00
2023-01-07T21:34:55.152Z,5.00
2023-01-07T21:39:58.643Z,5.00
2023-01-07T21:45:00.902Z,4.90
2023-01-07T21:50:03.206Z,4.80
2023-01-07T21:55:05.957Z,4.70
2023-01-07T22:00:08.757Z,4.80
2023-01-07T22:05:16.800Z,4.80
2023-01-07T22:10:19.786Z,4.80
2023-01-07T22:15:21.998Z,4.80
2023-01-07T22:20:24.230Z,4.70
2023-01-07T22:25:26.475Z,4.80
2023-01-07T22:30:31.596Z,4.80
2023-01-07T22:35:34.976Z,4.70
2023-01-07T22:40:38.997Z,4.80
2023-01-07T22:45:47.858Z,4.70
2023-01-07T22:50:53.380Z,4.60
2023-01-07T22:55:56.891Z,4.60
2023-01-07T23:00:59.221Z,4.60
2023-01-07T23:06:01.522Z,4.50
2023-01-07T23:11:04.845Z,4.50
2023-01-07T23:16:07.767Z,4.50
2023-01-07T23:21:10.051Z,4.50
2023-01-07T23:26:15.885Z,4.40
2023-01-07T23:31:18.744Z,4.30
2023-01-07T23:36:21.224Z,4.30
2023-01-07T23:41:23.838Z,4.10
2023-01-07T23:46:26.073Z,4.10
2023-01-07T23:51:28.356Z,4.20
2023-01-07T23:56:30.624Z,4.00
